Surface/Precipitation History
07/15/2019 12:44  to  7/16/2019 12:44
Change End Date:
Date/Time
(MDT)
Sf
Temp Chem Water Layer Surface Precipitation
Sfc Pvt Sub Frz Factor Pct Dpth DpthThk IcePct Cond Salin FI Type Intens Accum Rate
07/16/2019 12:35 Dry 104.7F - 76F - - - - - - 32 mhos 1664 - None None - -
07/16/2019 12:29 Dry 105.1F - 76F - - - - - - 27 mhos 1412 - None None - -
07/16/2019 12:25 Dry 104.0F - 76F - - - - - - 34 mhos 1818 - None None - -
07/16/2019 12:15 Dry 103.5F - 76F - - - - - - 29 mhos 1540 - None None - -
07/16/2019 12:14 Dry 103.1F - 76F - - - - - - 31 mhos 1634 - None None - -
07/16/2019 12:05 Dry 102.6F - 76F - - - - - - 35 mhos 1881 - None None - -
07/16/2019 11:59 Dry 100.4F - 76F - - - - - - 35 mhos 1934 - None None - -
07/16/2019 11:55 Dry 100.8F - 76F - - - - - - 34 mhos 1874 - None None - -
07/16/2019 11:45 Dry 100.6F - 76F - - - - - - 14 mhos 756 - None None - -
07/16/2019 11:43 Dry 100.0F - 76F - - - - - - 19 mhos 1022 - None None - -
07/16/2019 11:35 Dry 99.5F - 76F - - - - - - 34 mhos 1883 - None None - -
07/16/2019 11:29 Dry 97.5F - 76F - - - - - - 30 mhos 1657 - None None - -
07/16/2019 11:25 Dry 97.0F - 76F - - - - - - 36 mhos 2043 - None None - -
07/16/2019 11:15 Dry 94.6F - 76F - - - - - - 33 mhos 1904 - None None - -
07/16/2019 11:14 Dry 94.1F - 76F - - - - - - 37 mhos 2116 - None None - -
Date/Time
(MDT)
Sf
Temp Chem Water Layer Surface Precipitation
Sfc Pvt Sub Frz Factor Pct Dpth DpthThk IcePct Cond Salin FI Type Intens Accum Rate
07/16/2019 11:05 Dry 93.9F - 76F - - - - - - 37 mhos 2144 - None None - -
07/16/2019 10:59 Dry 90.5F - 76F - - - - - - 22 mhos 1253 - None None - -
07/16/2019 10:55 Dry 91.0F - 76F - - - - - - 37 mhos 2195 - None None - -
07/16/2019 10:45 Dry 93.7F - 76F - - - - - - 34 mhos 1980 - None None - -
07/16/2019 10:44 Dry 93.4F - 76F - - - - - - 38 mhos 2178 - None None - -
07/16/2019 10:35 Dry 90.7F - 76F - - - - - - 38 mhos 2269 - None None - -
07/16/2019 10:29 Dry 88.5F - 76F - - - - - - 38 mhos 2327 - None None - -
07/16/2019 10:25 Dry 85.8F - 76F - - - - - - 38 mhos 2380 - None None - -
07/16/2019 10:15 Dry 86.9F - 76F - - - - - - 36 mhos 2205 - None None - -
07/16/2019 10:14 Dry 86.9F - 76F - - - - - - 33 mhos 2005 - None None - -
07/16/2019 10:05 Dry 82.9F - 77F - - - - - - 39 mhos 2488 - None None - -
07/16/2019 09:59 Dry 86.5F - 77F - - - - - - 22 mhos 1305 - None None - -
07/16/2019 09:55 Dry 85.5F - 77F - - - - - - 38 mhos 2375 - None None - -
07/16/2019 09:45 Dry 82.9F - 77F - - - - - - 26 mhos 1604 - None None - -
07/16/2019 09:44 Dry 82.9F - 77F - - - - - - 39 mhos 2488 - None None - -
Date/Time
(MDT)
Sf
Temp Chem Water Layer Surface Precipitation
Sfc Pvt Sub Frz Factor Pct Dpth DpthThk IcePct Cond Salin FI Type Intens Accum Rate
07/16/2019 09:35 Dry 80.1F - 77F - - - - - - 11 mhos 685 - None None - -
07/16/2019 09:29 Dry 80.6F - 77F - - - - - - 15 mhos 907 - None None - -
07/16/2019 09:25 Dry 78.1F - 77F - - - - - - 34 mhos 2216 - None None - -
07/16/2019 09:15 Dry 74.5F - 77F - - - - - - 9 mhos 589 - None None - -
07/16/2019 09:14 Dry 74.1F - 77F - - - - - - 9 mhos 605 - None None - -
07/16/2019 09:05 Dry 71.8F - 77F - - - - - - 9 mhos 594 - None None - -
07/16/2019 08:59 Dry 70.5F - 77F - - - - - - 9 mhos 568 - None None - -
07/16/2019 08:55 Dry 69.4F - 77F - - - - - - 8 mhos 554 - None None - -
07/16/2019 08:45 Dry 68.9F - 77F - - - - - - 29 mhos 2049 - None None - -
07/16/2019 08:44 Dry 68.9F - 77F - - - - - - 40 mhos 2926 - None None - -
07/16/2019 08:35 Dry 68.7F - 77F - - - - - - 42 mhos 3075 - None None - -
07/16/2019 08:29 Dry 68.4F - 77F - - - - - - 42 mhos 3085 - None None - -
07/16/2019 08:24 Dry 68.4F - 77F - - - - - - 42 mhos 3085 - None None - -
07/16/2019 08:14 Dry 68.0F - 78F - - - - - - 29 mhos 2084 - None None - -
07/16/2019 08:14 Dry 67.8F - 78F - - - - - - 42 mhos 3078 - None None - -
Date/Time
(MDT)
Sf
Temp Chem Water Layer Surface Precipitation
Sfc Pvt Sub Frz Factor Pct Dpth DpthThk IcePct Cond Salin FI Type Intens Accum Rate
07/16/2019 08:04 Dry 66.4F - 78F - - - - - - 42 mhos 3151 - None None - -
07/16/2019 07:59 Dry 66.0F - 78F - - - - - - 42 mhos 3162 - None None - -
07/16/2019 07:54 Dry 65.7F - 78F - - - - - - 42 mhos 3195 - None None - -
07/16/2019 07:44 Dry 64.9F - 78F - - - - - - 42 mhos 3199 - None None - -
07/16/2019 07:44 Dry 64.9F - 78F - - - - - - 42 mhos 3222 - None None - -
07/16/2019 07:34 Dry 63.1F - 78F - - - - - - 41 mhos 3197 - None None - -
07/16/2019 07:29 Dry 62.2F - 78F - - - - - - 10 mhos 685 - None None - -
07/16/2019 07:24 Dry 61.9F - 78F - - - - - - 30 mhos 2310 - None None - -
07/16/2019 07:15 Wet 61.2F - 78F 31F 30 2% 0.50 in - 0% 8 mhos 584 - None None - -
07/16/2019 07:14 Wet 61.2F - 78F 31F 30 2% 0.50 in - 0% 8 mhos 584 - None None - -
07/16/2019 07:04 Wet 60.6F - 78F 31F 40 2% 0.50 in - 0% 9 mhos 682 - None None - -
07/16/2019 06:59 Wet 60.4F - 78F 31F 60 3% 1.10 in - 0% 12 mhos 902 - None None - -
07/16/2019 06:54 Wet 60.1F - 78F 32F 15 1% 1.00 in - 0% 6 mhos 445 - None None - -
07/16/2019 06:44 Wet 59.4F - 78F 32F 15 2% 0.60 in - 0% 6 mhos 450 - None None - -
07/16/2019 06:43 Wet 59.2F - 78F 32F 20 2% 0.60 in - 0% 7 mhos 549 - None None - -
Date/Time
(MDT)
Sf
Temp Chem Water Layer Surface Precipitation
Sfc Pvt Sub Frz Factor Pct Dpth DpthThk IcePct Cond Salin FI Type Intens Accum Rate
07/16/2019 06:34 Wet 58.6F - 78F 32F 30 2% 1.70 in - 0% 7 mhos 539 - None None - -
07/16/2019 06:29 Wet 58.6F - 78F 31F 35 2% 0.90 in - 0% 8 mhos 594 - None None - -
07/16/2019 06:24 Wet 58.6F - 78F 31F 45 3% 0.40 in - 0% 11 mhos 827 - None None - -
07/16/2019 06:14 Wet 58.6F - 79F 31F 30 2% 0.50 in - 0% 9 mhos 661 - None None - -
07/16/2019 06:13 Wet 58.6F - 79F 31F 40 2% 0.60 in - 0% 10 mhos 709 - None None - -
07/16/2019 06:04 Wet 57.7F - 79F 28F 80 12% 0.20 in - 0% 42 mhos 3468 - None None - -
07/16/2019 05:58 Wet 57.6F - 79F 29F 85 9% 0.20 in - 0% 33 mhos 2633 - None None - -
07/16/2019 05:54 Wet 57.4F - 79F 31F 65 3% 2.00 in - 0% 12 mhos 932 - None None - -
07/16/2019 05:44 Wet 57.4F - 79F 31F 55 3% 0.50 in - 0% 12 mhos 930 - None None - -
07/16/2019 05:43 Wet 57.6F - 79F 31F 65 3% 0.60 in - 0% 13 mhos 1001 - None None - -
07/16/2019 05:34 Wet 57.6F - 79F 30F 75 6% 0.50 in - 0% 24 mhos 1924 - None None - -
07/16/2019 05:28 Wet 57.7F - 79F 31F 40 3% 0.30 in - 0% 11 mhos 833 - None None - -
07/16/2019 05:24 Wet 57.7F - 79F 31F 45 3% 0.40 in - 0% 12 mhos 903 - None None - -
07/16/2019 05:14 Wet 58.1F - 79F 31F 55 3% 0.60 in - 0% 11 mhos 842 - None None - -
07/16/2019 05:13 Wet 58.1F - 79F 31F 45 4% 0.50 in - 0% 14 mhos 1077 - None None - -
Date/Time
(MDT)
Sf
Temp Chem Water Layer Surface Precipitation
Sfc Pvt Sub Frz Factor Pct Dpth DpthThk IcePct Cond Salin FI Type Intens Accum Rate
07/16/2019 05:04 Wet 58.6F - 79F 30F 70 7% 0.30 in - 0% 25 mhos 1971 - None None - -
07/16/2019 04:59 Wet 58.6F - 79F 30F 80 7% 0.30 in - 0% 28 mhos 2225 - None None - -
07/16/2019 04:54 Wet 58.8F - 79F 29F 95 11% 0.20 in - 0% 41 mhos 3352 - None None - -
07/16/2019 04:44 Wet 59.0F - 79F 31F 55 4% 0.40 in - 0% 16 mhos 1223 - None None - -
07/16/2019 04:44 Wet 59.0F - 79F 31F 55 4% 0.40 in - 0% 16 mhos 1223 - None None - -
07/16/2019 04:34 Wet 59.5F - 79F 30F 85 6% 0.40 in - 0% 24 mhos 1856 - None None - -
07/16/2019 04:29 Wet 60.1F - 80F 32F 5 1% 1.10 in - 0% 4 mhos 288 - None None - -
07/16/2019 04:24 Wet 60.3F - 80F 32F 5 1% 3.90 in - 0% 3 mhos 237 - None None - -
07/16/2019 04:14 Wet 60.4F - 80F 32F 5 1% 0.90 in - 0% 4 mhos 290 - None None - -
07/16/2019 04:13 Wet 60.4F - 80F 32F 10 1% 1.40 in - 0% 4 mhos 273 - None None - -
07/16/2019 04:03 Wet 60.8F - 80F 32F 5 1% 2.10 in - 0% 4 mhos 260 - None None - -
07/16/2019 03:59 Wet 61.0F - 80F 32F 5 1% 0.80 in - 0% 4 mhos 286 - None None - -
07/16/2019 03:53 Wet 61.2F - 80F 32F 10 1% 0.70 in - 0% 5 mhos 333 - None None - -
07/16/2019 03:44 Wet 61.3F - 80F 32F 10 1% 0.90 in - 0% 5 mhos 341 - None None - -
07/16/2019 03:43 Wet 61.5F - 80F 32F 10 1% 1.10 in - 0% 5 mhos 348 - None None - -
Date/Time
(MDT)
Sf
Temp Chem Water Layer Surface Precipitation
Sfc Pvt Sub Frz Factor Pct Dpth DpthThk IcePct Cond Salin FI Type Intens Accum Rate
07/16/2019 03:33 Wet 61.9F - 80F 32F 25 2% 0.60 in - 0% 8 mhos 550 - None None - -
07/16/2019 03:29 Wet 61.5F - 80F 31F 30 2% 0.70 in - 0% 8 mhos 608 - None None - -
07/16/2019 03:23 Wet 61.9F - 80F 31F 35 2% 0.80 in - 0% 8 mhos 568 - None None - -
07/16/2019 03:14 Wet 62.2F - 80F 31F 35 2% 0.80 in - 0% 8 mhos 599 - Yes - - -
07/16/2019 03:13 Wet 62.2F - 80F 31F 40 2% 0.60 in - 0% 9 mhos 616 - Yes - - -
07/16/2019 03:03 Wet 62.2F - 80F 31F 40 2% 1.50 in - 0% 8 mhos 581 - Yes - - -
07/16/2019 02:59 Wet 62.2F - 80F 31F 35 2% 0.90 in - 0% 10 mhos 723 - Yes - - -
07/16/2019 02:53 Wet 62.2F - 80F 31F 45 3% 0.50 in - 0% 12 mhos 887 - Yes - - -
07/16/2019 02:44 Wet 62.2F - 80F 31F 55 3% 0.40 in - 0% 14 mhos 1031 - Yes - - -
07/16/2019 02:43 Wet 62.2F - 80F 31F 50 3% 0.60 in - 0% 12 mhos 899 - Yes - - -
07/16/2019 02:33 Wet 62.8F - 80F 31F 50 2% 1.50 in - 0% 10 mhos 724 - Yes - - -
07/16/2019 02:29 Wet 62.8F - 80F 31F 75 4% 0.60 in - 0% 18 mhos 1305 - Yes - - -
07/16/2019 02:23 Wet 63.1F - 80F 31F 65 5% 0.30 in - 0% 20 mhos 1489 - Yes - - -
07/16/2019 02:14 Wet 63.0F - 81F 31F 70 3% 0.60 in - 0% 14 mhos 1032 - Yes - - -
07/16/2019 02:13 Wet 62.8F - 81F 31F 60 4% 0.30 in - 0% 18 mhos 1284 - Yes - - -
Date/Time
(MDT)
Sf
Temp Chem Water Layer Surface Precipitation
Sfc Pvt Sub Frz Factor Pct Dpth DpthThk IcePct Cond Salin FI Type Intens Accum Rate
07/16/2019 02:03 Wet 64.4F - 81F 29F 95 11% 0.20 in - 0% 41 mhos 3172 - Yes - - -
07/16/2019 01:59 Dry 64.4F - 81F - - - - - - 29 mhos 2111 - None None - -
07/16/2019 01:53 Dry 64.4F - 81F - - - - - - 11 mhos 761 - None None - -
07/16/2019 01:44 Dry 64.4F - 81F - - - - - - 31 mhos 2305 - None None - -
07/16/2019 01:43 Dry 64.4F - 81F - - - - - - 25 mhos 1796 - None None - -
07/16/2019 01:33 Dry 64.4F - 81F - - - - - - 42 mhos 3238 - None None - -
07/16/2019 01:29 Dry 64.4F - 81F - - - - - - 7 mhos 469 - None None - -
07/16/2019 01:23 Dry 64.0F - 81F - - - - - - 7 mhos 509 - None None - -
07/16/2019 01:14 Dry 63.5F - 81F - - - - - - 17 mhos 1233 - None None - -
07/16/2019 01:13 Dry 63.3F - 81F - - - - - - 10 mhos 697 - None None - -
07/16/2019 01:03 Dry 63.3F - 81F - - - - - - 40 mhos 3099 - None None - -
07/16/2019 00:59 Dry 63.5F - 81F - - - - - - 42 mhos 3295 - None None - -
07/16/2019 00:53 Dry 63.7F - 81F - - - - - - 4 mhos 285 - None None - -
07/16/2019 00:44 Dry 63.9F - 81F - - - - - - 5 mhos 327 - None None - -
07/16/2019 00:43 Dry 63.9F - 81F - - - - - - 5 mhos 380 - None None - -
Date/Time
(MDT)
Sf
Temp Chem Water Layer Surface Precipitation
Sfc Pvt Sub Frz Factor Pct Dpth DpthThk IcePct Cond Salin FI Type Intens Accum Rate
07/16/2019 00:33 Dry 64.0F - 81F - - - - - - 6 mhos 427 - None None - -
07/16/2019 00:29 Dry 64.0F - 81F - - - - - - 7 mhos 459 - None None - -
07/16/2019 00:22 Dry 64.2F - 81F - - - - - - 6 mhos 387 - None None - -
07/16/2019 00:14 Dry 64.4F - 81F - - - - - - 6 mhos 439 - None None - -
07/16/2019 00:12 Dry 64.4F - 81F - - - - - - 7 mhos 494 - None None - -
07/16/2019 00:02 Dry 64.4F - 82F - - - - - - 15 mhos 1039 - None None - -
07/15/2019 23:59 Dry 64.6F - 82F - - - - - - 42 mhos 3209 - None None - -
07/15/2019 23:52 Dry 64.8F - 82F - - - - - - 9 mhos 665 - None None - -
07/15/2019 23:44 Dry 65.3F - 82F - - - - - - 15 mhos 1052 - None None - -
07/15/2019 23:42 Dry 65.3F - 82F - - - - - - 12 mhos 869 - None None - -
07/15/2019 23:32 Dry 65.3F - 82F - - - - - - 8 mhos 577 - None None - -
07/15/2019 23:29 Dry 65.7F - 82F - - - - - - 10 mhos 682 - None None - -
07/15/2019 23:22 Dry 65.7F - 82F - - - - - - 18 mhos 1307 - None None - -
07/15/2019 23:14 Dry 66.0F - 82F - - - - - - 15 mhos 1059 - None None - -
07/15/2019 23:12 Dry 66.0F - 82F - - - - - - 23 mhos 1663 - None None - -
Date/Time
(MDT)
Sf
Temp Chem Water Layer Surface Precipitation
Sfc Pvt Sub Frz Factor Pct Dpth DpthThk IcePct Cond Salin FI Type Intens Accum Rate
07/15/2019 23:02 Dry 66.6F - 82F - - - - - - 9 mhos 650 - None None - -
07/15/2019 22:59 Dry 66.7F - 82F - - - - - - 6 mhos 440 - None None - -
07/15/2019 22:52 Dry 66.9F - 82F - - - - - - 7 mhos 468 - None None - -
07/15/2019 22:44 Dry 67.1F - 82F - - - - - - 8 mhos 554 - None None - -
07/15/2019 22:42 Dry 67.1F - 82F - - - - - - 11 mhos 778 - None None - -
07/15/2019 22:32 Dry 67.5F - 82F - - - - - - 38 mhos 2764 - None None - -
07/15/2019 22:29 Dry 67.6F - 82F - - - - - - 6 mhos 428 - None None - -
07/15/2019 22:22 Dry 67.8F - 82F - - - - - - 8 mhos 530 - None None - -
07/15/2019 22:14 Dry 68.4F - 82F - - - - - - 9 mhos 600 - None None - -
07/15/2019 22:12 Dry 68.4F - 82F - - - - - - 7 mhos 494 - None None - -
07/15/2019 22:02 Dry 69.3F - 82F - - - - - - 35 mhos 2473 - None None - -
07/15/2019 21:58 Dry 69.6F - 82F - - - - - - 34 mhos 2417 - None None - -
07/15/2019 21:52 Dry 70.0F - 82F - - - - - - 7 mhos 479 - None None - -
07/15/2019 21:42 Dry 70.7F - 82F - - - - - - 7 mhos 466 - None None - -
07/15/2019 21:42 Dry 70.7F - 82F - - - - - - 7 mhos 466 - None None - -
Date/Time
(MDT)
Sf
Temp Chem Water Layer Surface Precipitation
Sfc Pvt Sub Frz Factor Pct Dpth DpthThk IcePct Cond Salin FI Type Intens Accum Rate
07/15/2019 21:32 Dry 71.1F - 82F - - - - - - 32 mhos 2243 - None None - -
07/15/2019 21:28 Dry 71.2F - 82F - - - - - - 40 mhos 2872 - None None - -
07/15/2019 21:22 Dry 71.6F - 82F - - - - - - 40 mhos 2863 - None None - -
07/15/2019 21:13 Dry 72.1F - 82F - - - - - - 22 mhos 1497 - None None - -
07/15/2019 21:12 Dry 72.1F - 82F - - - - - - 28 mhos 1949 - None None - -
07/15/2019 21:02 Dry 73.2F - 82F - - - - - - 40 mhos 2801 - None None - -
07/15/2019 20:59 Dry 73.4F - 82F - - - - - - 40 mhos 2792 - None None - -
07/15/2019 20:52 Dry 74.1F - 82F - - - - - - 42 mhos 2932 - None None - -
07/15/2019 20:44 Dry 75.2F - 82F - - - - - - 33 mhos 2253 - None None - -
07/15/2019 20:42 Dry 75.4F - 82F - - - - - - 40 mhos 2757 - None None - -
07/15/2019 20:32 Dry 76.5F - 82F - - - - - - 13 mhos 846 - None None - -
07/15/2019 20:29 Dry 77.0F - 82F - - - - - - 9 mhos 587 - None None - -
07/15/2019 20:22 Dry 78.1F - 82F - - - - - - 20 mhos 1267 - None None - -
07/15/2019 20:14 Dry 78.3F - 82F - - - - - - 40 mhos 2650 - None None - -
07/15/2019 20:12 Dry 78.3F - 82F - - - - - - 35 mhos 2302 - None None - -
Date/Time
(MDT)
Sf
Temp Chem Water Layer Surface Precipitation
Sfc Pvt Sub Frz Factor Pct Dpth DpthThk IcePct Cond Salin FI Type Intens Accum Rate
07/15/2019 20:01 Dry 76.6F - 82F - - - - - - 40 mhos 2707 - None None - -
07/15/2019 19:59 Dry 76.5F - 82F - - - - - - 40 mhos 2751 - None None - -
07/15/2019 19:51 Dry 76.1F - 82F - - - - - - 39 mhos 2635 - None None - -
07/15/2019 19:44 Dry 75.9F - 82F - - - - - - 7 mhos 450 - Yes - - -
07/15/2019 19:41 Dry 75.6F - 82F - - - - - - 13 mhos 808 - None None - -
07/15/2019 19:31 Dry 75.9F - 82F - - - - - - 10 mhos 610 - None None - -
07/15/2019 19:29 Dry 75.9F - 82F - - - - - - 9 mhos 573 - None None - -
07/15/2019 19:21 Dry 76.3F - 82F - - - - - - 8 mhos 509 - None None - -
07/15/2019 19:14 Dry 76.6F - 82F - - - - - - 27 mhos 1777 - None None - -
07/15/2019 19:11 Dry 76.8F - 82F - - - - - - 37 mhos 2503 - Yes - - -
07/15/2019 19:01 Dry 77.2F - 82F - - - - - - 29 mhos 1867 - None None - -
07/15/2019 18:59 Dry 77.2F - 82F - - - - - - 35 mhos 2311 - None None - -
07/15/2019 18:51 Dry 77.7F - 82F - - - - - - 32 mhos 2118 - None None - -
07/15/2019 18:44 Dry 78.3F - 82F - - - - - - 33 mhos 2131 - None None - -
07/15/2019 18:41 Dry 78.4F - 82F - - - - - - 33 mhos 2151 - None None - -
Date/Time
(MDT)
Sf
Temp Chem Water Layer Surface Precipitation
Sfc Pvt Sub Frz Factor Pct Dpth DpthThk IcePct Cond Salin FI Type Intens Accum Rate
07/15/2019 18:31 Dry 78.6F - 82F - - - - - - 13 mhos 812 - None None - -
07/15/2019 18:29 Dry 78.6F - 82F - - - - - - 15 mhos 926 - None None - -
07/15/2019 18:21 Dry 78.8F - 82F - - - - - - 20 mhos 1242 - None None - -
07/15/2019 18:14 Dry 76.8F - 82F - - - - - - 32 mhos 2103 - None None - -
07/15/2019 18:11 Dry 76.5F - 82F - - - - - - 32 mhos 2131 - None None - -
07/15/2019 18:01 Wet 74.8F - 82F 31F 60 3% 0.40 in - 0% 16 mhos 1018 - None None - -
07/15/2019 17:59 Wet 74.3F - 82F 31F 75 4% 0.40 in - 0% 17 mhos 1114 - None None - -
07/15/2019 17:51 Wet 73.2F - 82F 31F 75 5% 0.40 in - 0% 22 mhos 1472 - None None - -
07/15/2019 17:44 Wet 74.3F - 81F 30F 85 7% 0.20 in - 0% 32 mhos 2141 - None None - -
07/15/2019 17:41 Wet 73.9F - 81F 31F 80 5% 0.30 in - 0% 23 mhos 1498 - None None - -
07/15/2019 17:31 Wet 73.8F - 81F 30F 90 7% 0.20 in - 0% 32 mhos 2187 - None None - -
07/15/2019 17:28 Wet 73.4F - 81F 30F 90 7% 0.20 in - 0% 33 mhos 2229 - None None - -
07/15/2019 17:21 Wet 72.3F - 81F 31F 75 4% 0.50 in - 0% 18 mhos 1181 - None None - -
07/15/2019 17:13 Wet 71.6F - 81F 30F 75 6% 0.20 in - 0% 25 mhos 1721 - Yes - - -
07/15/2019 17:11 Wet 72.1F - 81F 30F 75 7% 0.20 in - 0% 31 mhos 2156 - Yes - - -
Date/Time
(MDT)
Sf
Temp Chem Water Layer Surface Precipitation
Sfc Pvt Sub Frz Factor Pct Dpth DpthThk IcePct Cond Salin FI Type Intens Accum Rate
07/15/2019 17:01 Wet 73.6F - 81F 31F 75 4% 0.70 in - 0% 18 mhos 1202 - Yes - - -
07/15/2019 16:59 Wet 75.4F - 81F 30F 50 6% 0.20 in - 0% 27 mhos 1774 - Yes - - -
07/15/2019 16:51 Dry 86.9F - 81F - - - - - - 11 mhos 611 - None None - -
07/15/2019 16:44 Dry 90.1F - 81F - - - - - - 21 mhos 1189 - Yes - - -
07/15/2019 16:41 Dry 90.9F - 80F - - - - - - 25 mhos 1437 - None None - -
07/15/2019 16:31 Dry 92.8F - 80F - - - - - - 8 mhos 459 - None None - -
07/15/2019 16:29 Dry 93.6F - 80F - - - - - - 8 mhos 458 - None None - -
07/15/2019 16:21 Dry 95.7F - 80F - - - - - - 13 mhos 685 - None None - -
07/15/2019 16:14 Dry 97.5F - 80F - - - - - - 28 mhos 1560 - None None - -
07/15/2019 16:11 Dry 98.1F - 80F - - - - - - 19 mhos 1016 - None None - -
07/15/2019 16:00 Dry 98.6F - 80F - - - - - - 28 mhos 1553 - None None - -
07/15/2019 15:59 Dry 99.1F - 80F - - - - - - 25 mhos 1358 - None None - -
07/15/2019 15:50 Dry 102.6F - 80F - - - - - - 28 mhos 1502 - None None - -
07/15/2019 15:44 Dry 103.8F - 80F - - - - - - 17 mhos 858 - None None - -
07/15/2019 15:40 Dry 104.4F - 80F - - - - - - 26 mhos 1360 - None None - -
Date/Time
(MDT)
Sf
Temp Chem Water Layer Surface Precipitation
Sfc Pvt Sub Frz Factor Pct Dpth DpthThk IcePct Cond Salin FI Type Intens Accum Rate
07/15/2019 15:30 Dry 105.1F - 79F - - - - - - 4 mhos 181 - None None - -
07/15/2019 15:29 Dry 105.3F - 79F - - - - - - 4 mhos 204 - None None - -
07/15/2019 15:20 Dry 110.7F - 79F - - - - - - 15 mhos 732 - None None - -
07/15/2019 15:14 Dry 113.9F - 79F - - - - - - 16 mhos 770 - None None - -
07/15/2019 15:10 Dry 115.3F - 79F - - - - - - 17 mhos 817 - None None - -
07/15/2019 15:00 Dry 117.9F - 79F - - - - - - 7 mhos 304 - None None - -
07/15/2019 14:59 Dry 117.5F - 79F - - - - - - 19 mhos 902 - None None - -
07/15/2019 14:50 Dry 118.0F - 79F - - - - - - 6 mhos 275 - None None - -
07/15/2019 14:44 Dry 117.3F - 79F - - - - - - 12 mhos 551 - None None - -
07/15/2019 14:40 Dry 115.7F - 79F - - - - - - 11 mhos 503 - None None - -
07/15/2019 14:30 Dry 118.4F - 79F - - - - - - 7 mhos 303 - None None - -
07/15/2019 14:29 Dry 117.1F - 79F - - - - - - 7 mhos 323 - None None - -
07/15/2019 14:20 Dry 115.7F - 79F - - - - - - 16 mhos 769 - None None - -
07/15/2019 14:14 Dry 117.0F - 78F - - - - - - 15 mhos 702 - None None - -
07/15/2019 14:10 Dry 115.7F - 78F - - - - - - 0 mhos 0 - None None - -
Date/Time
(MDT)
Sf
Temp Chem Water Layer Surface Precipitation
Sfc Pvt Sub Frz Factor Pct Dpth DpthThk IcePct Cond Salin FI Type Intens Accum Rate
07/15/2019 14:00 Dry 114.6F - 78F - - - - - - 26 mhos 1261 - None None - -
07/15/2019 13:59 Dry 117.3F - 78F - - - - - - 20 mhos 925 - None None - -
07/15/2019 13:50 Dry 117.0F - 78F - - - - - - 12 mhos 556 - None None - -
07/15/2019 13:44 Dry 113.4F - 78F - - - - - - 14 mhos 680 - None None - -
07/15/2019 13:40 Dry 109.2F - 78F - - - - - - 32 mhos 1652 - None None - -
07/15/2019 13:30 Dry 102.0F - 78F - - - - - - 27 mhos 1455 - None None - -
07/15/2019 13:29 Dry 102.4F - 78F - - - - - - 27 mhos 1415 - None None - -
07/15/2019 13:20 Dry 103.6F - 78F - - - - - - 33 mhos 1776 - None None - -
07/15/2019 13:13 Dry 104.2F - 78F - - - - - - 26 mhos 1367 - None None - -
07/15/2019 13:10 Dry 105.4F - 78F - - - - - - 16 mhos 815 - None None - -
07/15/2019 13:00 Dry 109.2F - 78F - - - - - - 20 mhos 984 - None None - -
07/15/2019 12:59 Dry 110.3F - 78F - - - - - - 28 mhos 1383 - None None - -
07/15/2019 12:50 Dry 114.6F - 78F - - - - - - 12 mhos 573 - None None - -
07/15/2019 12:44 Dry 113.0F - 78F - - - - - - 9 mhos 417 - None None - -
Change End Date:

Copyright © 1998-2015 Vaisala, Inc.
All Rights Reserved
Send comments about the data to:
SCAN Web ® is a registered trademark of Vaisala, Inc.
SCAN Web Version 6.0